Time;durP1;ratioP1;P1;durP2;ratioP2;P2;SDS_P1;SDS_P2;PMS_P1;PMS_P2;Temp;Humidity;BMP_temperature;BMP_pressure;BME280_temperature;BME280_humidity;BME280_pressure;Samples;Min_cycle;Max_cycle;Signal;HPM_P1;HPM_P2
2022/11/21 06:00:45;;;;;;;1.00;0.57;;;6.90;97.20;;;;;;1713865;28;20256;-73
2022/11/21 06:03:55;;;;;;;1.30;0.90;;;7.00;97.20;;;;;;1713723;28;20197;-74
2022/11/21 06:04:47;;;;;;;1.30;1.20;;;7.00;97.20;;;;;;1713958;28;20209;-73
2022/11/21 06:05:38;;;;;;;1.83;1.00;;;7.00;97.20;;;;;;1713844;28;21050;-73
2022/11/21 06:06:29;;;;;;;1.60;1.10;;;7.10;97.20;;;;;;1713553;28;20553;-74
2022/11/21 06:07:20;;;;;;;1.13;1.02;;;7.10;97.20;;;;;;1713652;28;20723;-74
2022/11/21 06:08:12;;;;;;;1.67;1.30;;;7.10;97.20;;;;;;1714011;28;20644;-73
2022/11/21 06:09:03;;;;;;;1.83;1.65;;;7.10;97.20;;;;;;1713232;28;20587;-74
2022/11/21 06:09:55;;;;;;;1.20;1.10;;;7.20;97.20;;;;;;1713805;28;20202;-74
2022/11/21 06:10:45;;;;;;;2.75;1.27;;;7.20;97.20;;;;;;1713754;28;20225;-73
2022/11/21 06:11:38;;;;;;;1.20;1.10;;;7.20;97.20;;;;;;1713872;28;20193;-74
2022/11/21 06:12:28;;;;;;;1.58;0.80;;;7.20;97.20;;;;;;1713902;28;20206;-73
2022/11/21 06:13:23;;;;;;;4.67;3.20;;;7.30;97.20;;;;;;1713768;28;20210;-77
2022/11/21 06:14:14;;;;;;;14.45;5.70;;;7.30;97.20;;;;;;1713247;28;20651;-74
2022/11/21 06:15:06;;;;;;;10.40;5.23;;;7.30;97.20;;;;;;1713788;28;20682;-73
2022/11/21 06:16:00;;;;;;;16.88;6.95;;;7.30;97.20;;;;;;1713758;28;20208;-74
2022/11/21 06:16:52;;;;;;;9.27;5.13;;;7.30;97.20;;;;;;1713677;28;21102;-74
2022/11/21 06:17:43;;;;;;;6.22;3.50;;;7.30;97.20;;;;;;1713726;28;20217;-72
2022/11/21 06:18:36;;;;;;;3.00;1.83;;;7.30;97.20;;;;;;1713363;28;20201;-74
2022/11/21 06:19:27;;;;;;;2.67;1.50;;;7.30;97.20;;;;;;1716132;28;20587;-73
2022/11/21 06:20:19;;;;;;;2.37;1.53;;;7.30;97.20;;;;;;1713625;28;20202;-73
2022/11/21 06:21:13;;;;;;;1.40;1.30;;;7.30;97.20;;;;;;1715937;28;20599;-75
2022/11/21 06:22:05;;;;;;;3.63;2.00;;;7.30;97.20;;;;;;1720522;28;20240;-72
2022/11/21 06:22:56;;;;;;;3.88;1.90;;;7.30;97.20;;;;;;1712711;28;20206;-71
2022/11/21 06:23:50;;;;;;;3.93;2.47;;;7.30;97.20;;;;;;1712381;28;20284;-74
2022/11/21 06:24:41;;;;;;;2.35;1.30;;;7.20;97.20;;;;;;1713725;28;20672;-72
2022/11/21 06:25:32;;;;;;;4.40;1.57;;;7.20;97.20;;;;;;1713869;28;20671;-72
2022/11/21 06:26:25;;;;;;;4.70;2.80;;;7.20;97.20;;;;;;1713778;28;20202;-72
2022/11/21 06:27:17;;;;;;;4.43;2.90;;;7.20;97.20;;;;;;1713707;28;20236;-72
2022/11/21 06:28:07;;;;;;;3.17;2.13;;;7.20;97.20;;;;;;1711838;28;20644;-73
2022/11/21 06:28:59;;;;;;;4.23;2.70;;;7.20;97.20;;;;;;1710843;28;20675;-73
2022/11/21 06:29:50;;;;;;;3.97;2.50;;;7.20;97.20;;;;;;1711505;28;20201;-72
2022/11/21 06:30:41;;;;;;;1.30;1.20;;;7.10;97.20;;;;;;1711865;28;20234;-72
2022/11/21 06:31:33;;;;;;;2.10;1.90;;;7.10;97.20;;;;;;1711569;28;20194;-74
2022/11/21 06:32:25;;;;;;;2.20;1.67;;;7.10;97.20;;;;;;1711037;28;20240;-74
2022/11/21 06:33:16;;;;;;;1.40;1.30;;;7.10;97.20;;;;;;1711400;28;20248;-74
2022/11/21 06:34:09;;;;;;;1.40;1.30;;;7.10;97.20;;;;;;1711745;28;20194;-74
2022/11/21 06:34:59;;;;;;;2.03;1.83;;;7.00;97.20;;;;;;1711311;28;20205;-73
2022/11/21 06:35:51;;;;;;;2.57;1.80;;;7.00;97.20;;;;;;1711205;28;20202;-73
2022/11/21 06:36:43;;;;;;;2.13;1.50;;;7.00;97.20;;;;;;1711135;28;22050;-75
2022/11/21 06:37:35;;;;;;;1.60;1.50;;;7.00;97.20;;;;;;1710880;28;20206;-74
2022/11/21 06:38:26;;;;;;;1.95;1.13;;;7.00;97.20;;;;;;1708838;28;20253;-73
2022/11/21 06:39:18;;;;;;;1.90;1.45;;;7.00;97.20;;;;;;1708614;28;20198;-73
2022/11/21 06:40:10;;;;;;;2.38;1.70;;;7.00;97.20;;;;;;1710228;28;20229;-73
2022/11/21 06:41:05;;;;;;;1.10;1.00;;;6.90;97.20;;;;;;1712107;28;20202;-73
2022/11/21 06:41:56;;;;;;;4.20;2.55;;;6.90;97.20;;;;;;1711252;28;20206;-74
2022/11/21 06:42:47;;;;;;;2.20;1.30;;;6.90;97.20;;;;;;1711162;28;20265;-73
2022/11/21 06:43:38;;;;;;;1.70;1.30;;;6.90;97.20;;;;;;1710257;28;20201;-73
2022/11/21 06:44:30;;;;;;;1.48;1.02;;;6.90;97.20;;;;;;1710843;28;20201;-73
2022/11/21 06:45:21;;;;;;;1.10;0.90;;;6.80;97.20;;;;;;1711311;28;20205;-73
2022/11/21 06:46:14;;;;;;;3.17;1.10;;;6.80;97.20;;;;;;1711265;28;20201;-73
2022/11/21 06:47:06;;;;;;;1.75;1.50;;;6.80;97.20;;;;;;1711748;28;20205;-74
2022/11/21 06:48:01;;;;;;;4.43;2.10;;;6.80;97.20;;;;;;1711789;28;20353;-73
2022/11/21 06:48:52;;;;;;;5.15;2.95;;;6.80;97.20;;;;;;1710732;28;20205;-73
2022/11/21 06:49:44;;;;;;;4.15;2.53;;;6.80;97.20;;;;;;1711464;28;20234;-74
2022/11/21 06:50:35;;;;;;;2.20;1.75;;;6.80;97.20;;;;;;1712664;28;20218;-73
2022/11/21 06:51:27;;;;;;;1.47;1.37;;;6.80;97.20;;;;;;1712884;28;20769;-73
2022/11/21 06:52:17;;;;;;;2.63;1.00;;;6.80;97.20;;;;;;1712608;28;20202;-73
2022/11/21 06:53:09;;;;;;;1.47;1.23;;;6.80;97.20;;;;;;1712808;28;20197;-73
2022/11/21 06:54:00;;;;;;;3.20;2.00;;;6.80;97.20;;;;;;1713653;28;20206;-73
2022/11/21 06:54:52;;;;;;;1.20;0.80;;;6.80;97.20;;;;;;1712553;28;20719;-73
2022/11/21 06:55:42;;;;;;;1.30;1.20;;;6.80;97.20;;;;;;1712714;28;20993;-73
2022/11/21 06:56:34;;;;;;;1.53;0.90;;;6.80;97.20;;;;;;1712704;28;20962;-75
2022/11/21 06:57:25;;;;;;;1.55;1.40;;;6.80;97.20;;;;;;1712553;28;20205;-75
2022/11/21 06:58:17;;;;;;;4.87;2.47;;;6.80;97.20;;;;;;1712570;28;20202;-75
2022/11/21 06:59:07;;;;;;;1.90;1.70;;;6.80;97.20;;;;;;1712431;28;20233;-75
2022/11/21 06:59:59;;;;;;;1.20;1.10;;;6.80;97.20;;;;;;1712631;28;20198;-75
2022/11/21 07:00:50;;;;;;;1.92;1.73;;;6.80;97.20;;;;;;1712509;28;20217;-75
2022/11/21 07:01:42;;;;;;;1.90;1.80;;;6.80;97.20;;;;;;1712302;28;20204;-75
2022/11/21 07:02:34;;;;;;;2.13;1.92;;;6.70;97.20;;;;;;1709303;28;20210;-74
2022/11/21 07:03:25;;;;;;;2.40;2.20;;;6.70;97.20;;;;;;1713226;28;20210;-74
2022/11/21 07:04:16;;;;;;;1.58;1.35;;;6.70;97.20;;;;;;1713166;28;20205;-75
2022/11/21 07:05:08;;;;;;;1.80;1.40;;;6.70;97.20;;;;;;1712760;28;20190;-75
2022/11/21 07:06:00;;;;;;;2.33;1.42;;;6.70;97.20;;;;;;1712452;28;20460;-75
2022/11/21 07:06:52;;;;;;;1.90;1.33;;;6.70;97.20;;;;;;1713463;28;20566;-74
2022/11/21 07:07:43;;;;;;;1.30;1.20;;;6.70;97.20;;;;;;1712795;28;20221;-75
2022/11/21 07:08:35;;;;;;;1.13;1.03;;;6.70;97.20;;;;;;1712159;28;20197;-75
2022/11/21 07:09:26;;;;;;;1.10;0.90;;;6.70;97.20;;;;;;1712840;28;20679;-75
2022/11/21 07:10:18;;;;;;;1.63;0.93;;;6.70;97.20;;;;;;1712356;28;20574;-75
2022/11/21 07:11:12;;;;;;;1.27;0.90;;;6.70;97.20;;;;;;1712431;28;20217;-75
2022/11/21 07:13:23;;;;;;;1.20;0.80;;;6.80;97.20;;;;;;1713419;28;20232;-75
2022/11/21 07:14:14;;;;;;;1.70;1.00;;;6.80;97.20;;;;;;1712817;28;20285;-75
2022/11/21 07:15:06;;;;;;;1.43;1.00;;;6.80;97.20;;;;;;1712755;28;20209;-75
2022/11/21 07:16:01;;;;;;;1.20;1.10;;;6.80;97.20;;;;;;1712903;28;20336;-75
2022/11/21 07:16:52;;;;;;;1.20;0.80;;;6.80;97.20;;;;;;1712471;28;20695;-75
2022/11/21 07:17:45;;;;;;;1.00;0.70;;;6.80;97.20;;;;;;1712722;28;20569;-75
2022/11/21 07:18:36;;;;;;;1.00;0.90;;;6.80;97.20;;;;;;1711985;28;20221;-75
2022/11/21 07:19:28;;;;;;;1.73;1.10;;;6.80;97.20;;;;;;1713375;28;20223;-75
2022/11/21 07:20:18;;;;;;;1.65;1.15;;;6.80;97.20;;;;;;1713114;28;20224;-74
2022/11/21 07:21:10;;;;;;;1.80;0.83;;;6.80;97.20;;;;;;1712378;28;20560;-74
2022/11/21 07:22:01;;;;;;;1.63;1.00;;;6.80;97.20;;;;;;1712419;28;20201;-75
2022/11/21 07:22:54;;;;;;;2.03;0.83;;;6.90;97.20;;;;;;1709182;28;20212;-74
2022/11/21 07:23:44;;;;;;;1.42;0.90;;;6.90;97.20;;;;;;1711936;28;20303;-74
2022/11/21 07:24:36;;;;;;;2.17;0.97;;;6.90;97.20;;;;;;1711901;28;20202;-73
2022/11/21 07:25:27;;;;;;;1.92;1.20;;;6.90;97.20;;;;;;1711725;28;20225;-73
2022/11/21 07:26:18;;;;;;;1.53;1.20;;;6.90;97.20;;;;;;1712227;28;20208;-74
2022/11/21 07:27:09;;;;;;;2.65;1.23;;;6.90;97.20;;;;;;1712304;28;20647;-74
2022/11/21 07:28:02;;;;;;;1.60;1.50;;;6.90;97.20;;;;;;1712809;28;20708;-74
2022/11/21 07:28:52;;;;;;;1.70;1.60;;;6.90;97.20;;;;;;1712160;28;20213;-74
2022/11/21 07:29:44;;;;;;;2.50;1.43;;;6.90;97.20;;;;;;1712454;28;20276;-73
2022/11/21 07:30:35;;;;;;;1.25;1.13;;;6.90;97.20;;;;;;1712522;28;20476;-77
2022/11/21 07:31:27;;;;;;;1.42;1.20;;;6.90;97.20;;;;;;1712326;28;20190;-73
2022/11/21 07:32:18;;;;;;;2.72;1.80;;;6.90;97.20;;;;;;1712576;28;20202;-73
2022/11/21 07:33:11;;;;;;;1.50;1.10;;;6.90;97.20;;;;;;1713262;28;20700;-73
2022/11/21 07:34:01;;;;;;;1.60;1.50;;;6.90;97.20;;;;;;1712265;28;20194;-74
2022/11/21 07:34:53;;;;;;;1.70;1.50;;;6.90;97.20;;;;;;1712530;28;20198;-74
2022/11/21 07:35:44;;;;;;;1.40;1.27;;;6.90;97.20;;;;;;1712177;28;20214;-74
2022/11/21 07:36:36;;;;;;;2.63;1.40;;;6.90;97.20;;;;;;1712423;28;20197;-73
2022/11/21 07:37:26;;;;;;;2.17;1.48;;;6.90;97.20;;;;;;1712636;28;20261;-74
2022/11/21 07:38:18;;;;;;;2.17;1.70;;;6.90;97.20;;;;;;1712574;28;20198;-73
2022/11/21 07:39:09;;;;;;;2.35;1.50;;;6.90;97.20;;;;;;1712387;28;20648;-73
2022/11/21 07:40:01;;;;;;;1.87;1.37;;;6.90;97.20;;;;;;1713006;28;20579;-74
2022/11/21 07:40:52;;;;;;;2.55;1.20;;;6.90;97.20;;;;;;1712993;28;20221;-74
2022/11/21 07:41:43;;;;;;;1.87;1.40;;;6.90;97.20;;;;;;1712364;28;20193;-74
2022/11/21 07:42:34;;;;;;;2.88;1.30;;;6.90;97.20;;;;;;1712314;28;20461;-74
2022/11/21 07:43:26;;;;;;;1.73;1.10;;;6.90;97.20;;;;;;1712274;28;20206;-73
2022/11/21 07:44:16;;;;;;;7.13;1.42;;;6.90;97.20;;;;;;1712496;28;20209;-73
2022/11/21 07:45:10;;;;;;;1.30;1.20;;;6.90;97.20;;;;;;1712704;28;20190;-74
2022/11/21 07:46:00;;;;;;;3.15;1.00;;;6.90;97.20;;;;;;1712648;28;20198;-73
2022/11/21 07:46:54;;;;;;;1.00;0.80;;;6.90;97.20;;;;;;1712521;28;20212;-74
2022/11/21 07:47:45;;;;;;;1.45;0.85;;;6.90;97.20;;;;;;1712179;28;20213;-74
2022/11/21 07:48:38;;;;;;;3.17;1.10;;;6.90;97.20;;;;;;1711584;28;20202;-74
2022/11/21 07:49:29;;;;;;;1.30;1.13;;;6.90;97.20;;;;;;1712441;28;20668;-74
2022/11/21 07:50:21;;;;;;;2.40;1.10;;;7.00;97.20;;;;;;1712346;28;20670;-74
2022/11/21 07:51:11;;;;;;;2.67;1.80;;;7.00;97.20;;;;;;1712463;28;20202;-74
2022/11/21 07:52:03;;;;;;;1.63;1.53;;;7.00;97.20;;;;;;1712451;28;20276;-75
2022/11/21 07:52:58;;;;;;;1.80;1.50;;;7.10;97.20;;;;;;1712854;28;20209;-74
2022/11/21 07:53:49;;;;;;;2.35;1.30;;;7.10;97.20;;;;;;1712307;28;20202;-74
2022/11/21 07:54:40;;;;;;;1.52;1.20;;;7.10;97.20;;;;;;1712339;28;20680;-74
2022/11/21 07:55:33;;;;;;;2.73;1.50;;;7.20;97.20;;;;;;1712249;28;20704;-74
2022/11/21 07:56:25;;;;;;;2.30;1.23;;;7.20;97.20;;;;;;1712367;28;20489;-74
2022/11/21 07:57:17;;;;;;;2.20;1.25;;;7.20;97.20;;;;;;1712043;28;20194;-75
2022/11/21 07:58:10;;;;;;;2.78;1.70;;;7.20;97.20;;;;;;1711979;28;20222;-75
2022/11/21 07:59:01;;;;;;;3.53;1.65;;;7.20;97.20;;;;;;1711609;28;20272;-75
2022/11/21 07:59:52;;;;;;;1.50;1.20;;;7.20;97.20;;;;;;1712784;28;20209;-74
2022/11/21 08:00:44;;;;;;;3.10;1.33;;;7.30;97.20;;;;;;1712047;28;20214;-74
2022/11/21 08:01:35;;;;;;;1.65;1.30;;;7.30;97.20;;;;;;1712329;28;20213;-74
2022/11/21 08:02:28;;;;;;;2.50;1.30;;;7.30;97.20;;;;;;1712556;28;20686;-73
2022/11/21 08:03:19;;;;;;;2.45;1.65;;;7.30;97.20;;;;;;1712199;28;20201;-73
2022/11/21 08:04:12;;;;;;;2.07;1.50;;;7.30;97.20;;;;;;1712223;28;20206;-73
2022/11/21 08:05:03;;;;;;;2.83;1.50;;;7.40;97.20;;;;;;1712206;28;20719;-73
2022/11/21 08:05:55;;;;;;;1.50;1.40;;;7.40;97.20;;;;;;1712843;28;20300;-74
2022/11/21 08:06:46;;;;;;;1.92;1.30;;;7.50;97.20;;;;;;1711965;28;20194;-74
2022/11/21 08:07:37;;;;;;;2.17;1.40;;;7.50;97.20;;;;;;1712277;28;20583;-73
2022/11/21 08:08:28;;;;;;;2.60;1.60;;;7.60;97.20;;;;;;1711743;28;20206;-74
2022/11/21 08:09:20;;;;;;;1.52;1.40;;;7.60;97.20;;;;;;1712218;28;20686;-74
2022/11/21 08:10:11;;;;;;;2.95;1.40;;;7.60;97.20;;;;;;1711859;28;20202;-73
2022/11/21 08:11:05;;;;;;;2.07;1.37;;;7.70;97.20;;;;;;1711599;28;20205;-73
2022/11/21 08:11:56;;;;;;;1.70;1.30;;;7.70;97.20;;;;;;1712010;28;20224;-74
2022/11/21 08:12:47;;;;;;;2.80;1.50;;;7.80;97.20;;;;;;1712796;28;20198;-73
2022/11/21 08:13:38;;;;;;;1.75;1.30;;;7.90;97.20;;;;;;1712429;28;20608;-73
2022/11/21 08:14:30;;;;;;;2.40;1.40;;;7.90;97.20;;;;;;1712307;28;20652;-74
2022/11/21 08:15:20;;;;;;;5.05;2.00;;;8.00;97.20;;;;;;1712254;28;20198;-74
2022/11/21 08:16:12;;;;;;;2.73;1.40;;;8.10;97.20;;;;;;1712240;28;20198;-74
2022/11/21 08:17:04;;;;;;;2.45;1.30;;;8.20;97.20;;;;;;1712012;28;20202;-74
2022/11/21 08:17:56;;;;;;;1.77;1.45;;;8.20;97.20;;;;;;1712493;28;20293;-73
2022/11/21 08:18:46;;;;;;;3.55;1.88;;;8.30;97.20;;;;;;1712193;28;20578;-73
2022/11/21 08:19:39;;;;;;;4.00;1.40;;;8.40;97.20;;;;;;1712634;28;21582;-73
2022/11/21 08:20:30;;;;;;;3.42;1.38;;;8.40;97.20;;;;;;1712030;28;20580;-73
2022/11/21 08:21:22;;;;;;;3.30;1.70;;;8.50;97.20;;;;;;1712298;28;20197;-74
2022/11/21 08:22:12;;;;;;;2.75;1.35;;;8.60;97.20;;;;;;1711932;28;20220;-73
2022/11/21 08:23:05;;;;;;;2.50;1.47;;;8.60;97.20;;;;;;1711700;28;20198;-73
2022/11/21 08:23:56;;;;;;;2.08;1.38;;;8.70;97.20;;;;;;1711803;28;20198;-73
2022/11/21 08:24:48;;;;;;;2.50;1.50;;;8.70;97.20;;;;;;1712318;28;20371;-73
2022/11/21 08:25:40;;;;;;;4.70;1.30;;;8.80;97.20;;;;;;1712616;28;20202;-74
2022/11/21 08:26:31;;;;;;;1.40;1.20;;;8.80;97.20;;;;;;1711968;28;20213;-73
2022/11/21 08:27:23;;;;;;;1.60;1.45;;;8.90;97.20;;;;;;1711759;28;20209;-73
2022/11/21 08:28:15;;;;;;;3.35;1.38;;;9.00;97.20;;;;;;1712043;28;20284;-73
2022/11/21 08:29:05;;;;;;;2.10;1.27;;;9.00;97.20;;;;;;1711559;28;20198;-74
2022/11/21 08:29:57;;;;;;;3.70;1.45;;;9.00;97.20;;;;;;1711889;28;20212;-73
2022/11/21 08:30:48;;;;;;;3.17;1.42;;;9.10;97.20;;;;;;1712058;28;20715;-73
2022/11/21 08:31:40;;;;;;;2.47;1.50;;;9.10;97.20;;;;;;1711908;28;20561;-73
2022/11/21 08:32:31;;;;;;;3.08;1.45;;;9.10;97.20;;;;;;1712761;28;20686;-73
2022/11/21 08:33:22;;;;;;;3.47;1.47;;;9.20;97.20;;;;;;1712104;28;20210;-73
2022/11/21 08:34:13;;;;;;;3.45;1.67;;;9.20;97.20;;;;;;1712152;28;20209;-73
2022/11/21 08:35:07;;;;;;;3.17;1.60;;;9.20;97.20;;;;;;1712040;28;20202;-73
2022/11/21 08:36:02;;;;;;;1.95;1.15;;;9.20;97.20;;;;;;1712150;28;20581;-73
2022/11/21 08:36:53;;;;;;;3.15;1.40;;;9.20;97.20;;;;;;1711924;28;20209;-74
2022/11/21 08:37:44;;;;;;;3.25;1.73;;;9.20;97.20;;;;;;1711895;28;20200;-73
2022/11/21 08:38:36;;;;;;;3.77;1.57;;;9.20;97.20;;;;;;1712104;28;20198;-73
2022/11/21 08:39:29;;;;;;;2.28;1.52;;;9.10;97.20;;;;;;1711938;28;20202;-73
2022/11/21 08:40:20;;;;;;;3.95;1.45;;;9.10;97.20;;;;;;1711905;28;20721;-73
2022/11/21 08:42:21;;;;;;;2.05;1.40;;;9.20;97.20;;;;;;1712089;28;20244;-73
2022/11/21 08:43:12;;;;;;;3.53;1.83;;;9.20;97.20;;;;;;1711752;28;21588;-73
2022/11/21 08:44:05;;;;;;;2.13;1.60;;;9.20;97.20;;;;;;1711999;28;20200;-73
2022/11/21 08:44:57;;;;;;;2.28;1.42;;;9.20;97.20;;;;;;1712328;28;20205;-73
2022/11/21 08:45:47;;;;;;;4.35;1.88;;;9.30;97.20;;;;;;1712425;28;20210;-73
2022/11/21 08:46:39;;;;;;;2.97;1.70;;;9.30;97.20;;;;;;1711497;28;20193;-73
2022/11/21 08:47:32;;;;;;;2.20;1.33;;;9.30;97.20;;;;;;1712162;28;20205;-73
2022/11/21 08:48:23;;;;;;;2.90;1.13;;;9.30;97.20;;;;;;1711399;28;20289;-73
2022/11/21 08:49:14;;;;;;;3.40;1.45;;;9.30;97.20;;;;;;1711889;28;20202;-74
2022/11/21 08:50:08;;;;;;;3.87;1.43;;;9.30;97.20;;;;;;1712013;28;20204;-73
2022/11/21 08:50:59;;;;;;;3.05;1.40;;;9.30;97.20;;;;;;1711991;28;20469;-73
2022/11/21 08:51:51;;;;;;;1.87;1.30;;;9.30;97.20;;;;;;1712786;28;20198;-73
2022/11/21 08:52:42;;;;;;;2.42;1.40;;;9.40;97.20;;;;;;1712170;28;20452;-73
2022/11/21 08:53:34;;;;;;;3.57;1.60;;;9.40;97.20;;;;;;1712069;28;20202;-73
2022/11/21 08:54:25;;;;;;;3.05;1.17;;;9.50;97.20;;;;;;1711868;28;20504;-73
2022/11/21 08:55:17;;;;;;;4.17;2.03;;;9.50;97.20;;;;;;1712813;28;20209;-74
2022/11/21 08:56:07;;;;;;;1.90;1.70;;;9.50;97.20;;;;;;1711895;28;20216;-74
2022/11/21 08:56:59;;;;;;;2.90;1.43;;;9.60;97.20;;;;;;1711716;28;20246;-73
2022/11/21 08:57:50;;;;;;;4.13;1.55;;;9.70;97.20;;;;;;1711910;28;20209;-73
2022/11/21 08:58:42;;;;;;;1.80;1.20;;;9.70;97.20;;;;;;1711681;28;20208;-73
2022/11/21 08:59:33;;;;;;;3.38;1.50;;;9.80;97.20;;;;;;1711943;28;20710;-74
2022/11/21 09:00:25;;;;;;;5.38;1.48;;;9.80;97.20;;;;;;1711834;28;20205;-74
2022/11/21 09:01:16;;;;;;;2.50;1.25;;;9.90;97.20;;;;;;1712110;28;20201;-73
2022/11/21 09:02:11;;;;;;;2.95;1.67;;;10.00;97.20;;;;;;1711986;28;20202;-73
2022/11/21 09:03:03;;;;;;;2.83;1.23;;;10.00;97.20;;;;;;1712013;28;20259;-73
2022/11/21 09:03:55;;;;;;;1.38;0.90;;;10.10;97.20;;;;;;1711708;28;20591;-73
2022/11/21 09:04:45;;;;;;;5.35;1.40;;;10.10;97.20;;;;;;1712420;28;20210;-73
2022/11/21 09:05:38;;;;;;;2.67;1.10;;;10.10;97.20;;;;;;1712303;28;20202;-73
2022/11/21 09:06:30;;;;;;;2.67;1.30;;;10.10;97.20;;;;;;1711686;28;20194;-73
2022/11/21 09:07:21;;;;;;;3.38;1.63;;;10.20;97.20;;;;;;1711627;28;20210;-73
2022/11/21 09:08:12;;;;;;;2.33;1.13;;;10.20;97.20;;;;;;1711563;28;20209;-73
2022/11/21 09:09:05;;;;;;;5.07;1.70;;;10.20;97.20;;;;;;1711232;28;20210;-73
2022/11/21 09:09:55;;;;;;;5.40;1.45;;;10.20;97.20;;;;;;1711601;28;20202;-73
2022/11/21 09:10:47;;;;;;;3.23;1.40;;;10.30;97.20;;;;;;1711783;28;20221;-73
2022/11/21 09:11:39;;;;;;;2.30;1.30;;;10.30;97.20;;;;;;1712781;28;20198;-73
2022/11/21 09:12:30;;;;;;;3.58;1.50;;;10.30;97.20;;;;;;1711155;28;20198;-73
2022/11/21 09:13:22;;;;;;;4.37;1.50;;;10.30;97.20;;;;;;1711778;28;20198;-73
2022/11/21 09:18:52;;;;;;;6.50;1.70;;;10.60;97.20;;;;;;1711446;28;20257;-73
2022/11/21 09:19:42;;;;;;;4.35;1.65;;;10.70;97.20;;;;;;1711373;28;20527;-73
2022/11/21 09:20:40;;;;;;;4.27;1.70;;;10.80;97.20;;;;;;1711639;28;20217;-73
2022/11/21 09:21:31;;;;;;;6.40;2.20;;;10.90;97.20;;;;;;1711664;28;20783;-73
2022/11/21 09:22:24;;;;;;;4.30;1.50;;;11.00;97.20;;;;;;1711827;28;20738;-74
2022/11/21 09:23:15;;;;;;;3.22;1.33;;;11.10;97.20;;;;;;1711624;28;20198;-73
2022/11/21 09:24:07;;;;;;;3.58;1.80;;;11.10;97.20;;;;;;1711892;28;20205;-74
2022/11/21 09:24:59;;;;;;;2.47;1.48;;;11.20;97.20;;;;;;1712256;28;20209;-73
2022/11/21 09:25:49;;;;;;;3.92;1.58;;;11.40;97.20;;;;;;1711704;28;20331;-74
2022/11/21 09:26:41;;;;;;;5.03;1.50;;;11.40;97.20;;;;;;1711584;28;20194;-73
2022/11/21 09:27:32;;;;;;;4.45;1.60;;;11.50;97.20;;;;;;1712165;28;20194;-74
2022/11/21 09:28:23;;;;;;;2.23;1.60;;;11.60;97.20;;;;;;1711550;28;20208;-74
2022/11/21 09:29:15;;;;;;;3.20;1.40;;;11.70;97.20;;;;;;1711535;28;20213;-73
2022/11/21 09:30:07;;;;;;;3.17;1.35;;;11.80;97.20;;;;;;1711318;28;20206;-74
2022/11/21 09:31:01;;;;;;;3.35;1.30;;;11.90;97.20;;;;;;1711876;28;20233;-73
2022/11/21 09:31:53;;;;;;;3.78;1.30;;;12.00;97.20;;;;;;1711338;28;20584;-73
2022/11/21 09:32:44;;;;;;;3.38;1.70;;;12.20;97.20;;;;;;1711430;28;20194;-73
2022/11/21 09:33:36;;;;;;;6.03;1.50;;;12.30;97.20;;;;;;1711993;28;20201;-74
2022/11/21 09:34:27;;;;;;;3.95;1.80;;;12.30;97.20;;;;;;1711978;28;20240;-73
2022/11/21 09:35:19;;;;;;;6.15;1.73;;;12.30;97.20;;;;;;1711965;28;20202;-73
2022/11/21 09:36:12;;;;;;;3.45;1.27;;;12.30;97.20;;;;;;1711834;28;20190;-73
2022/11/21 09:37:03;;;;;;;3.97;1.30;;;12.30;97.20;;;;;;1711198;28;20197;-74
2022/11/21 09:37:54;;;;;;;4.33;1.30;;;12.40;97.20;;;;;;1712301;28;20228;-73
2022/11/21 09:38:45;;;;;;;4.68;1.35;;;12.40;97.20;;;;;;1711343;28;20194;-73
2022/11/21 09:39:37;;;;;;;3.37;1.43;;;12.40;97.20;;;;;;1711593;28;20217;-74
2022/11/21 09:40:29;;;;;;;3.08;1.30;;;12.40;97.20;;;;;;1711261;28;20205;-73
2022/11/21 09:42:59;;;;;;;3.63;1.30;;;12.40;97.20;;;;;;1711690;28;20767;-73
2022/11/21 09:44:00;;;;;;;4.40;1.67;;;12.50;97.20;;;;;;1711514;28;20194;-74
2022/11/21 09:45:03;;;;;;;3.63;1.38;;;12.50;97.20;;;;;;1711503;28;20197;-74
2022/11/21 09:46:03;;;;;;;4.57;1.70;;;12.60;97.20;;;;;;1711531;28;20221;-73
2022/11/21 09:46:59;;;;;;;4.38;1.60;;;12.60;97.20;;;;;;1711691;28;20702;-74
2022/11/21 09:47:52;;;;;;;10.50;2.33;;;12.70;97.20;;;;;;1711752;28;20237;-74
2022/11/21 09:48:50;;;;;;;3.83;1.40;;;12.70;97.20;;;;;;1710885;28;20194;-73
2022/11/21 09:49:46;;;;;;;3.50;1.33;;;12.80;97.20;;;;;;1711703;28;20198;-73
2022/11/21 09:50:42;;;;;;;4.85;1.50;;;12.90;97.20;;;;;;1711766;28;20245;-73
2022/11/21 09:51:37;;;;;;;3.88;1.40;;;13.00;97.20;;;;;;1710375;28;20205;-73
2022/11/21 09:52:37;;;;;;;5.18;1.52;;;13.10;97.20;;;;;;1711591;28;20241;-73
2022/11/21 09:53:32;;;;;;;3.03;1.60;;;13.20;97.20;;;;;;1711759;28;20194;-74
2022/11/21 09:54:30;;;;;;;3.30;1.20;;;13.30;97.20;;;;;;1711563;28;20291;-73
2022/11/21 09:55:26;;;;;;;4.57;1.35;;;13.40;97.20;;;;;;1711466;28;20225;-74
2022/11/21 09:56:20;;;;;;;2.90;1.50;;;13.60;97.20;;;;;;1711621;28;20277;-73
2022/11/21 09:57:16;;;;;;;4.40;1.35;;;13.60;97.20;;;;;;1711394;28;20194;-73
2022/11/21 09:58:18;;;;;;;1.30;1.15;;;13.60;97.20;;;;;;1712053;28;20194;-74
2022/11/21 09:59:24;;;;;;;3.38;1.30;;;13.60;97.20;;;;;;1710968;28;20687;-74
2022/11/21 10:00:20;;;;;;;2.55;1.20;;;13.60;97.20;;;;;;1711261;28;20293;-73
2022/11/21 10:01:13;;;;;;;1.92;1.10;;;13.50;97.20;;;;;;1711682;28;20194;-73
2022/11/21 10:02:14;;;;;;;4.90;1.85;;;13.50;97.20;;;;;;1711106;28;20210;-73
2022/11/21 10:03:10;;;;;;;2.22;1.20;;;13.60;97.20;;;;;;1711571;28;20253;-74
2022/11/21 10:04:03;;;;;;;4.15;1.40;;;13.60;97.20;;;;;;1712687;28;20194;-74
2022/11/21 10:04:59;;;;;;;3.13;1.10;;;13.70;97.20;;;;;;1712105;28;20267;-74
2022/11/21 10:05:54;;;;;;;1.88;1.00;;;13.70;97.20;;;;;;1711498;28;20879;-73
2022/11/21 10:06:56;;;;;;;4.00;1.45;;;13.70;97.20;;;;;;1711368;28;20202;-74
2022/11/21 10:07:51;;;;;;;2.28;1.13;;;13.70;97.20;;;;;;1711430;28;20656;-74
2022/11/21 10:08:52;;;;;;;5.38;1.52;;;13.70;97.20;;;;;;1710915;28;21158;-73
2022/11/21 10:10:09;;;;;;;2.58;1.23;;;13.70;97.20;;;;;;1711356;28;20213;-74
2022/11/21 10:11:13;;;;;;;1.90;0.90;;;13.80;97.20;;;;;;1710641;28;20229;-73
2022/11/21 10:13:31;;;;;;;2.40;1.08;;;14.00;97.20;;;;;;1711856;28;20625;-74
2022/11/21 10:14:30;;;;;;;2.97;0.88;;;14.00;97.20;;;;;;1711631;28;20191;-74
2022/11/21 10:15:30;;;;;;;2.63;1.17;;;14.10;97.20;;;;;;1711597;28;20190;-74
2022/11/21 10:16:30;;;;;;;6.85;1.20;;;14.20;97.20;;;;;;1711351;28;20644;-74
2022/11/21 10:17:30;;;;;;;3.13;1.15;;;14.30;97.20;;;;;;1711707;28;20212;-74
2022/11/21 10:18:49;;;;;;;1.70;0.90;;;14.40;97.20;;;;;;1711284;28;20205;-74
2022/11/21 10:20:08;;;;;;;2.55;1.10;;;14.50;97.20;;;;;;1711744;28;20216;-74
2022/11/21 10:21:08;;;;;;;5.50;1.73;;;14.60;97.20;;;;;;1711332;28;20228;-73
2022/11/21 10:22:29;;;;;;;2.17;1.30;;;14.60;97.20;;;;;;1711151;28;20194;-74
2022/11/21 10:23:47;;;;;;;3.47;1.40;;;14.70;97.20;;;;;;1711884;28;20217;-74
2022/11/21 10:24:54;;;;;;;3.97;1.67;;;14.80;97.20;;;;;;1710806;28;20640;-74
2022/11/21 10:25:54;;;;;;;3.08;1.17;;;14.80;97.20;;;;;;1711272;28;20707;-74
2022/11/21 10:26:51;;;;;;;3.40;0.90;;;14.80;97.20;;;;;;1711154;28;20194;-74
2022/11/21 10:27:49;;;;;;;3.00;1.08;;;14.80;97.20;;;;;;1711506;28;20551;-74
2022/11/21 10:28:47;;;;;;;3.17;1.30;;;14.90;97.20;;;;;;1711072;28;20198;-74
2022/11/21 10:29:42;;;;;;;3.55;1.30;;;15.00;97.20;;;;;;1711411;28;20572;-73
2022/11/21 10:30:33;;;;;;;4.03;1.10;;;15.10;97.20;;;;;;1711907;28;20272;-74
2022/11/21 10:31:29;;;;;;;2.22;1.20;;;15.20;97.20;;;;;;1711568;28;20229;-74
2022/11/21 10:32:24;;;;;;;2.92;1.17;;;15.30;97.20;;;;;;1711081;28;20314;-74
2022/11/21 10:33:23;;;;;;;5.18;1.60;;;15.50;97.20;;;;;;1711485;28;20194;-74
2022/11/21 10:34:18;;;;;;;2.75;1.42;;;15.70;97.20;;;;;;1711360;28;20213;-74
2022/11/21 10:35:15;;;;;;;9.10;1.65;;;15.80;97.20;;;;;;1711474;28;20193;-74
2022/11/21 10:36:16;;;;;;;5.53;1.42;;;15.80;97.20;;;;;;1711586;28;20194;-74
2022/11/21 10:37:14;;;;;;;5.30;1.33;;;15.80;97.20;;;;;;1710808;28;20206;-74
2022/11/21 10:38:18;;;;;;;4.63;2.22;;;15.80;97.20;;;;;;1711657;28;21724;-73
2022/11/21 10:39:18;;;;;;;5.95;1.70;;;15.80;97.20;;;;;;1710823;28;20194;-74
2022/11/21 10:40:19;;;;;;;6.18;1.40;;;15.80;97.20;;;;;;1711085;28;20209;-74
2022/11/21 10:41:15;;;;;;;3.80;1.20;;;15.80;97.20;;;;;;1711468;28;20195;-74
2022/11/21 10:42:15;;;;;;;2.75;1.27;;;15.90;97.20;;;;;;1712018;28;20772;-74
2022/11/21 10:45:36;;;;;;;2.80;1.17;;;15.90;97.20;;;;;;1711485;28;20189;-74
2022/11/21 10:46:26;;;;;;;2.40;1.00;;;16.00;97.20;;;;;;1711970;28;20194;-74
2022/11/21 10:47:26;;;;;;;3.77;1.37;;;16.00;97.20;;;;;;1710723;28;20217;-74
2022/11/21 10:48:18;;;;;;;5.70;1.55;;;16.10;97.20;;;;;;1711452;28;20635;-74
2022/11/21 10:49:13;;;;;;;2.38;1.20;;;16.20;97.20;;;;;;1710637;28;21918;-73
2022/11/21 10:50:20;;;;;;;2.60;1.30;;;16.30;97.20;;;;;;1711850;28;20257;-74
2022/11/21 10:51:27;;;;;;;2.97;1.30;;;16.30;97.20;;;;;;1711465;28;20288;-74
2022/11/21 10:52:22;;;;;;;4.25;1.40;;;16.40;97.20;;;;;;1711367;28;20205;-75
2022/11/21 10:54:35;;;;;;;2.38;1.33;;;16.60;97.20;;;;;;1711635;28;20560;-73
2022/11/21 10:55:27;;;;;;;2.95;1.27;;;16.60;97.20;;;;;;1711218;28;20591;-74
2022/11/21 10:56:20;;;;;;;3.55;1.10;;;16.50;97.20;;;;;;1712137;28;20237;-74